Time;durP1;ratioP1;P1;durP2;ratioP2;P2;SDS_P1;SDS_P2;PMS_P1;PMS_P2;Temp;Humidity;BMP_temperature;BMP_pressure;BME280_temperature;BME280_humidity;BME280_pressure;Samples;Min_cycle;Max_cycle;Signal;HPM_P1;HPM_P2
2024/03/21 00:02:03;;;;;;;21.77;12.07;;;11.10;99.90;;;;;;7279395;19;20202;-78
2024/03/21 00:04:29;;;;;;;22.33;11.33;;;11.10;99.90;;;;;;7281831;19;20573;-78
2024/03/21 00:06:55;;;;;;;19.27;11.40;;;11.10;99.90;;;;;;7288724;19;20196;-78
2024/03/21 00:09:22;;;;;;;20.73;12.13;;;11.00;99.90;;;;;;7287547;19;20205;-77
2024/03/21 00:11:48;;;;;;;19.43;12.37;;;11.10;99.90;;;;;;7288024;19;20186;-78
2024/03/21 00:14:15;;;;;;;21.50;12.27;;;11.10;99.90;;;;;;7309099;19;20768;-79
2024/03/21 00:16:41;;;;;;;21.37;13.67;;;11.20;99.90;;;;;;7288249;19;20316;-78
2024/03/21 00:19:07;;;;;;;22.87;13.93;;;11.30;99.90;;;;;;7286278;19;20535;-78
2024/03/21 00:21:34;;;;;;;26.90;14.73;;;11.30;99.90;;;;;;7285035;19;20374;-77
2024/03/21 00:24:00;;;;;;;21.90;13.57;;;11.40;99.90;;;;;;7287300;19;20614;-78
2024/03/21 00:26:25;;;;;;;24.30;14.17;;;11.30;99.90;;;;;;7287526;19;20265;-78
2024/03/21 00:28:52;;;;;;;24.80;13.70;;;11.40;99.90;;;;;;7286255;19;20215;-78
2024/03/21 00:31:17;;;;;;;24.70;13.47;;;11.40;99.90;;;;;;7295741;19;20202;-77
2024/03/21 00:33:47;;;;;;;20.70;12.77;;;11.40;99.90;;;;;;7307993;19;20198;-77
2024/03/21 00:36:19;;;;;;;27.73;15.23;;;11.40;99.90;;;;;;7288946;19;20278;-78
2024/03/21 00:38:47;;;;;;;27.30;14.63;;;11.40;99.90;;;;;;7286532;19;20320;-78
2024/03/21 00:41:12;;;;;;;21.23;14.10;;;11.50;99.90;;;;;;7284913;19;20542;-78
2024/03/21 00:43:38;;;;;;;27.10;15.60;;;11.50;99.90;;;;;;7286455;19;20202;-78
2024/03/21 00:46:04;;;;;;;28.23;14.93;;;11.50;99.90;;;;;;7287282;19;20194;-78
2024/03/21 00:48:30;;;;;;;26.33;15.20;;;11.40;99.90;;;;;;7285143;19;20262;-78
2024/03/21 00:50:55;;;;;;;25.80;14.37;;;11.30;99.90;;;;;;7285752;19;20198;-78
2024/03/21 00:53:21;;;;;;;26.33;14.90;;;11.30;99.90;;;;;;7287230;19;20294;-78
2024/03/21 00:55:47;;;;;;;26.53;15.07;;;11.30;99.90;;;;;;7304759;19;20245;-78
2024/03/21 00:58:13;;;;;;;27.63;15.03;;;11.20;99.90;;;;;;7297912;19;20233;-78
2024/03/21 01:00:39;;;;;;;27.53;16.10;;;11.20;99.90;;;;;;7286375;19;20202;-78
2024/03/21 01:03:05;;;;;;;27.50;15.93;;;11.30;99.90;;;;;;7286995;19;20207;-79
2024/03/21 01:05:32;;;;;;;26.27;15.40;;;11.30;99.90;;;;;;7285676;19;20198;-78
2024/03/21 01:07:58;;;;;;;29.57;16.50;;;11.30;99.90;;;;;;7286261;19;20205;-78
2024/03/21 01:10:24;;;;;;;26.03;16.17;;;11.40;99.90;;;;;;7285082;19;20657;-78
2024/03/21 01:12:49;;;;;;;31.57;16.93;;;11.30;99.90;;;;;;7286498;19;20193;-78
2024/03/21 01:15:17;;;;;;;27.57;16.30;;;11.20;99.90;;;;;;7306614;19;20193;-78
2024/03/21 01:17:43;;;;;;;27.33;15.77;;;11.20;99.90;;;;;;7284172;19;20660;-78
2024/03/21 01:20:10;;;;;;;25.50;16.10;;;11.20;99.90;;;;;;7286171;19;20198;-78
2024/03/21 01:22:36;;;;;;;24.90;15.53;;;11.20;99.90;;;;;;7286148;19;20182;-78
2024/03/21 01:25:04;;;;;;;24.57;16.37;;;11.30;99.90;;;;;;7282729;19;20198;-78
2024/03/21 01:27:30;;;;;;;25.63;16.03;;;11.20;99.90;;;;;;7284214;19;20192;-78
2024/03/21 01:29:56;;;;;;;25.43;16.57;;;11.20;99.90;;;;;;7283828;19;20190;-78
2024/03/21 01:32:22;;;;;;;21.70;14.03;;;11.30;99.90;;;;;;7285655;19;20229;-76
2024/03/21 01:34:49;;;;;;;20.27;12.17;;;11.20;99.90;;;;;;7291614;19;20197;-76
2024/03/21 01:37:14;;;;;;;22.67;12.33;;;11.10;99.90;;;;;;7306051;19;20634;-77
2024/03/21 01:39:40;;;;;;;20.27;13.00;;;11.00;99.90;;;;;;7284517;19;20204;-79
2024/03/21 01:42:06;;;;;;;20.03;12.20;;;10.90;99.90;;;;;;7284861;19;20191;-78
2024/03/21 01:44:32;;;;;;;25.77;13.77;;;11.00;99.90;;;;;;7283078;19;20642;-78
2024/03/21 01:46:58;;;;;;;25.33;14.10;;;11.00;99.90;;;;;;7282284;19;20196;-76
2024/03/21 01:49:25;;;;;;;26.40;15.00;;;11.00;99.90;;;;;;7283133;19;20297;-77
2024/03/21 01:51:51;;;;;;;26.53;15.70;;;11.00;99.90;;;;;;7283317;19;20194;-76
2024/03/21 01:54:17;;;;;;;30.97;17.47;;;10.80;99.90;;;;;;7297196;19;20189;-76
2024/03/21 01:56:44;;;;;;;28.00;16.97;;;10.70;99.90;;;;;;7300571;19;20223;-76
2024/03/21 01:59:10;;;;;;;30.63;18.33;;;10.70;99.90;;;;;;7284694;19;20721;-76
2024/03/21 02:01:36;;;;;;;31.33;19.33;;;10.60;99.90;;;;;;7284357;19;20194;-77
2024/03/21 02:04:04;;;;;;;32.10;20.47;;;10.60;99.90;;;;;;7282131;19;20190;-76
2024/03/21 02:06:35;;;;;;;35.30;22.57;;;10.80;99.90;;;;;;7284066;19;20186;-76
2024/03/21 02:09:03;;;;;;;39.37;23.20;;;10.90;99.90;;;;;;7281712;19;20669;-77
2024/03/21 02:11:29;;;;;;;39.67;25.10;;;10.90;99.90;;;;;;7281302;19;20198;-76
2024/03/21 02:13:55;;;;;;;34.27;21.90;;;11.00;99.90;;;;;;7281475;19;20197;-76
2024/03/21 02:16:22;;;;;;;36.97;22.63;;;11.00;99.90;;;;;;7283491;19;20185;-77
2024/03/21 02:18:53;;;;;;;39.33;23.80;;;10.90;99.90;;;;;;7295854;19;20278;-77
2024/03/21 02:24:03;;;;;;;40.70;24.37;;;10.80;99.90;;;;;;7283581;19;20211;-77
2024/03/21 02:26:29;;;;;;;37.97;23.77;;;10.80;99.90;;;;;;7285356;19;20250;-77
2024/03/21 02:28:55;;;;;;;38.87;24.87;;;10.80;99.90;;;;;;7280313;19;20177;-77
2024/03/21 02:31:22;;;;;;;48.40;27.37;;;10.90;99.90;;;;;;7282102;19;20603;-77
2024/03/21 02:33:49;;;;;;;37.93;25.73;;;10.60;99.90;;;;;;7294778;19;20238;-77
2024/03/21 02:36:15;;;;;;;40.30;26.30;;;10.40;99.90;;;;;;7306210;19;20574;-77
2024/03/21 02:38:41;;;;;;;37.77;23.63;;;10.40;99.90;;;;;;7282890;19;20586;-77
2024/03/21 02:41:07;;;;;;;33.37;22.20;;;10.40;99.90;;;;;;7281679;19;20185;-78
2024/03/21 02:43:32;;;;;;;32.50;21.27;;;10.50;99.90;;;;;;7283457;19;20198;-77
2024/03/21 02:45:58;;;;;;;35.13;21.83;;;10.50;99.90;;;;;;7282581;19;20567;-77
2024/03/21 02:48:24;;;;;;;35.13;21.87;;;10.50;99.90;;;;;;7281957;19;20187;-77
2024/03/21 02:50:50;;;;;;;35.27;23.00;;;10.50;99.90;;;;;;7283881;19;20222;-77
2024/03/21 02:53:16;;;;;;;31.53;19.83;;;10.60;99.90;;;;;;7304886;19;20188;-77
2024/03/21 02:55:41;;;;;;;30.17;16.57;;;10.60;99.90;;;;;;7283391;19;20197;-77
2024/03/21 02:58:07;;;;;;;26.20;17.23;;;10.60;99.90;;;;;;7281409;19;20257;-77
2024/03/21 03:00:33;;;;;;;25.60;16.10;;;10.60;99.90;;;;;;7281199;19;20189;-77
2024/03/21 03:02:59;;;;;;;28.17;16.57;;;10.60;99.90;;;;;;7281892;19;20221;-77
2024/03/21 03:05:25;;;;;;;23.93;16.00;;;10.50;99.90;;;;;;7283627;19;20195;-77
2024/03/21 03:07:50;;;;;;;24.30;16.20;;;10.50;99.90;;;;;;7279697;19;20278;-77
2024/03/21 03:10:16;;;;;;;26.87;17.63;;;10.40;99.90;;;;;;7300199;19;20185;-77
2024/03/21 03:12:42;;;;;;;32.80;18.83;;;10.40;99.90;;;;;;7282132;19;20675;-77
2024/03/21 03:15:09;;;;;;;35.47;21.60;;;10.30;99.90;;;;;;7282640;19;20313;-77
2024/03/21 03:17:35;;;;;;;33.40;20.77;;;10.30;99.90;;;;;;7278455;19;20189;-78
2024/03/21 03:20:01;;;;;;;34.87;22.63;;;10.40;99.90;;;;;;7282961;19;20193;-77
2024/03/21 03:22:27;;;;;;;34.80;21.97;;;10.30;99.90;;;;;;7281893;19;20185;-77
2024/03/21 03:24:53;;;;;;;35.67;22.77;;;10.20;99.90;;;;;;7280872;19;20273;-77
2024/03/21 03:27:18;;;;;;;36.87;23.20;;;10.10;99.90;;;;;;7286327;19;20188;-77
2024/03/21 03:29:44;;;;;;;41.03;24.40;;;10.10;99.90;;;;;;7302391;19;20291;-78
2024/03/21 03:32:11;;;;;;;42.17;24.97;;;10.10;99.90;;;;;;7281805;19;20663;-77
2024/03/21 03:37:40;;;;;;;44.67;27.63;;;10.20;99.90;;;;;;7177350;19;2004382;-77
2024/03/21 03:40:09;;;;;;;41.73;27.47;;;10.10;99.90;;;;;;7286731;19;20181;-77
2024/03/21 03:42:35;;;;;;;47.30;29.90;;;10.10;99.90;;;;;;7287616;19;20200;-77
2024/03/21 03:45:01;;;;;;;54.83;30.70;;;10.10;99.90;;;;;;7285493;19;20183;-77
2024/03/21 03:47:27;;;;;;;47.67;29.23;;;10.20;99.90;;;;;;7285930;19;20217;-77
2024/03/21 03:49:52;;;;;;;52.93;32.13;;;10.10;99.90;;;;;;7286217;19;20197;-77
2024/03/21 03:52:18;;;;;;;54.47;31.07;;;10.10;99.90;;;;;;7298975;19;20679;-77
2024/03/21 03:54:44;;;;;;;54.17;32.17;;;10.00;99.90;;;;;;7305384;19;20301;-78
2024/03/21 03:57:09;;;;;;;53.20;30.80;;;9.90;99.90;;;;;;7285916;19;20236;-77
2024/03/21 03:59:35;;;;;;;48.13;28.70;;;9.80;99.90;;;;;;7288445;19;20775;-77
2024/03/21 04:02:01;;;;;;;52.40;30.57;;;9.80;99.90;;;;;;7286653;19;20205;-77
2024/03/21 04:04:27;;;;;;;58.17;32.90;;;9.90;99.90;;;;;;7285286;19;20189;-77
2024/03/21 04:06:53;;;;;;;55.43;33.30;;;10.00;99.90;;;;;;7286657;19;20184;-76
2024/03/21 04:09:19;;;;;;;56.67;33.30;;;10.00;99.90;;;;;;7286642;19;20193;-76
2024/03/21 04:11:45;;;;;;;58.83;34.83;;;10.10;99.90;;;;;;7307574;19;20226;-77
2024/03/21 04:14:11;;;;;;;57.20;34.40;;;10.10;99.90;;;;;;7284938;19;20189;-76
2024/03/21 04:16:36;;;;;;;60.37;33.17;;;10.00;99.90;;;;;;7285905;19;20193;-76
2024/03/21 04:19:02;;;;;;;60.70;34.57;;;9.90;99.90;;;;;;7284703;19;20990;-76
2024/03/21 04:21:28;;;;;;;58.97;35.97;;;9.90;99.90;;;;;;7283871;19;20188;-77
2024/03/21 04:23:54;;;;;;;61.57;36.43;;;9.90;99.90;;;;;;7282161;19;20201;-76
2024/03/21 04:26:19;;;;;;;66.63;39.23;;;10.00;99.90;;;;;;7283995;19;20747;-77
2024/03/21 04:28:45;;;;;;;63.37;37.37;;;10.10;99.90;;;;;;7305018;19;20219;-77
2024/03/21 04:31:11;;;;;;;62.87;35.83;;;10.00;99.90;;;;;;7282543;19;20197;-76
2024/03/21 04:33:37;;;;;;;57.43;34.70;;;9.90;99.90;;;;;;7284061;19;20197;-77
2024/03/21 04:36:03;;;;;;;63.07;36.40;;;9.90;99.90;;;;;;7283735;19;20185;-77
2024/03/21 04:38:29;;;;;;;61.63;37.63;;;10.00;99.90;;;;;;7286582;19;20189;-77
2024/03/21 04:40:54;;;;;;;63.80;36.00;;;9.90;99.90;;;;;;7283228;19;20212;-77
2024/03/21 04:43:20;;;;;;;52.50;33.93;;;9.90;99.90;;;;;;7283656;19;20184;-77
2024/03/21 04:45:46;;;;;;;60.33;34.70;;;9.80;99.90;;;;;;7308493;19;20189;-77
2024/03/21 04:48:12;;;;;;;54.43;31.90;;;9.70;99.90;;;;;;7287093;19;20205;-77
2024/03/21 04:50:37;;;;;;;53.13;31.47;;;9.60;99.90;;;;;;7282872;19;20305;-77
2024/03/21 04:53:03;;;;;;;55.90;33.03;;;9.60;99.90;;;;;;7284468;19;20566;-77
2024/03/21 04:55:29;;;;;;;57.10;35.43;;;9.60;99.90;;;;;;7286982;19;20189;-77
2024/03/21 04:57:55;;;;;;;48.20;30.67;;;9.70;99.90;;;;;;7286069;19;20718;-77
2024/03/21 05:00:20;;;;;;;52.70;32.67;;;9.80;99.90;;;;;;7283286;19;20192;-77
2024/03/21 05:02:46;;;;;;;55.57;33.90;;;9.70;99.90;;;;;;7306549;19;21033;-77
2024/03/21 05:05:12;;;;;;;60.57;35.00;;;9.60;99.90;;;;;;7284949;19;20508;-77
2024/03/21 05:07:37;;;;;;;47.17;29.97;;;9.60;99.90;;;;;;7285891;19;20201;-77
2024/03/21 05:10:04;;;;;;;46.07;28.37;;;9.50;99.90;;;;;;7283581;19;20195;-76
2024/03/21 05:12:30;;;;;;;46.60;27.67;;;9.50;99.90;;;;;;7286036;19;20191;-77
2024/03/21 05:14:56;;;;;;;53.23;29.93;;;9.40;99.90;;;;;;7286441;19;20196;-77
2024/03/21 05:17:22;;;;;;;58.13;32.97;;;9.40;99.90;;;;;;7288561;19;20187;-77
2024/03/21 05:19:48;;;;;;;58.37;32.70;;;9.40;99.90;;;;;;7303690;19;20193;-77
2024/03/21 05:22:16;;;;;;;56.63;33.07;;;9.40;99.90;;;;;;7295884;19;20185;-77
2024/03/21 05:24:43;;;;;;;57.07;34.13;;;9.50;99.90;;;;;;7284812;19;20177;-76
2024/03/21 05:27:09;;;;;;;53.33;32.90;;;9.70;99.90;;;;;;7284840;19;20201;-76
2024/03/21 05:29:35;;;;;;;59.20;34.27;;;9.80;99.90;;;;;;7283487;19;20248;-76
2024/03/21 05:32:02;;;;;;;61.63;36.17;;;9.90;99.90;;;;;;7286056;19;20185;-76
2024/03/21 05:34:29;;;;;;;52.03;33.07;;;10.10;99.90;;;;;;7283760;19;20185;-76
2024/03/21 05:36:55;;;;;;;52.17;30.83;;;10.20;99.90;;;;;;7281876;19;20225;-78
2024/03/21 05:39:21;;;;;;;45.40;27.07;;;10.10;99.90;;;;;;7282969;19;20181;-77
2024/03/21 05:41:47;;;;;;;49.73;28.40;;;10.00;99.90;;;;;;7305704;19;20189;-77
2024/03/21 05:44:13;;;;;;;42.60;27.00;;;10.00;99.90;;;;;;7285872;19;20519;-77
2024/03/21 05:46:38;;;;;;;47.17;28.60;;;10.10;99.90;;;;;;7278735;19;20202;-77
2024/03/21 05:49:04;;;;;;;52.37;30.10;;;10.20;99.90;;;;;;7283435;19;20578;-77
2024/03/21 05:51:30;;;;;;;71.70;40.63;;;10.30;99.90;;;;;;7285885;19;20195;-77
2024/03/21 05:53:56;;;;;;;63.37;36.80;;;10.40;99.90;;;;;;7283777;19;20213;-78
2024/03/21 05:56:21;;;;;;;71.67;37.83;;;10.50;99.90;;;;;;7282192;19;20652;-77
2024/03/21 05:58:47;;;;;;;86.97;44.63;;;10.60;99.90;;;;;;7306371;19;20185;-78
2024/03/21 06:03:42;;;;;;;64.03;37.17;;;10.60;99.90;;;;;;7283476;19;20520;-78
2024/03/21 06:06:08;;;;;;;71.47;42.30;;;10.70;99.90;;;;;;7282170;19;20194;-77
2024/03/21 06:08:34;;;;;;;95.60;48.07;;;10.70;99.90;;;;;;7283471;19;20181;-78
2024/03/21 06:11:00;;;;;;;105.37;51.97;;;10.90;99.90;;;;;;7281639;19;20668;-79
2024/03/21 06:13:26;;;;;;;111.73;54.00;;;11.10;99.90;;;;;;7282731;19;20193;-78
2024/03/21 06:15:51;;;;;;;121.13;55.10;;;11.20;99.90;;;;;;7281618;19;20254;-78
2024/03/21 06:18:17;;;;;;;117.80;54.50;;;11.30;99.90;;;;;;7305748;19;20204;-79
2024/03/21 06:20:44;;;;;;;128.23;58.37;;;11.30;99.90;;;;;;7285020;19;20202;-79
2024/03/21 06:23:10;;;;;;;123.27;56.13;;;11.30;99.90;;;;;;7282838;19;20189;-78
2024/03/21 06:25:37;;;;;;;129.90;55.00;;;11.40;99.90;;;;;;7282985;19;20198;-78
2024/03/21 06:28:06;;;;;;;129.30;58.57;;;11.50;99.90;;;;;;7284521;19;20187;-78
2024/03/21 06:30:33;;;;;;;125.57;56.03;;;11.40;99.90;;;;;;7283575;19;20196;-78
2024/03/21 06:32:59;;;;;;;123.90;56.40;;;11.40;99.90;;;;;;7281314;19;20192;-78
2024/03/21 06:35:26;;;;;;;127.50;55.40;;;11.40;99.90;;;;;;7280842;19;20190;-78
2024/03/21 06:37:52;;;;;;;127.50;56.53;;;11.50;99.90;;;;;;7282965;19;20672;-78
2024/03/21 06:40:19;;;;;;;121.53;55.87;;;11.60;99.90;;;;;;7299163;19;20186;-78
2024/03/21 06:42:45;;;;;;;136.37;57.00;;;11.70;99.90;;;;;;7302900;19;20215;-78
2024/03/21 06:45:11;;;;;;;121.10;55.53;;;11.90;99.90;;;;;;7282351;19;20194;-78
2024/03/21 06:47:44;;;;;;;122.30;55.40;;;12.00;99.90;;;;;;7282567;19;20193;-78
2024/03/21 06:50:11;;;;;;;127.30;56.40;;;12.00;99.90;;;;;;7280332;19;20248;-80
2024/03/21 06:52:37;;;;;;;123.00;55.93;;;12.10;99.90;;;;;;7278373;19;20191;-80
2024/03/21 06:55:03;;;;;;;123.97;53.07;;;12.10;99.90;;;;;;7279895;19;20195;-80
2024/03/21 06:57:30;;;;;;;117.00;52.37;;;12.10;99.90;;;;;;7280960;19;20663;-80
2024/03/21 06:59:56;;;;;;;115.73;52.03;;;12.10;99.90;;;;;;7279683;19;21018;-80
2024/03/21 07:02:23;;;;;;;120.70;53.40;;;12.10;99.90;;;;;;7279451;19;20210;-80
2024/03/21 07:04:48;;;;;;;115.33;51.53;;;12.30;99.90;;;;;;7294794;19;20193;-79
2024/03/21 07:07:14;;;;;;;95.70;45.47;;;12.20;99.90;;;;;;7298211;19;20186;-80
2024/03/21 07:09:40;;;;;;;59.50;30.73;;;12.00;99.90;;;;;;7280191;19;20199;-80
2024/03/21 07:12:06;;;;;;;57.73;30.43;;;11.60;99.90;;;;;;7279958;19;20257;-79
2024/03/21 07:14:34;;;;;;;58.10;31.90;;;11.40;99.90;;;;;;7285570;19;20195;-80
2024/03/21 07:17:01;;;;;;;61.63;33.37;;;11.40;99.90;;;;;;7286926;19;20201;-81
2024/03/21 07:19:35;;;;;;;80.90;39.20;;;11.50;99.90;;;;;;7283180;19;20269;-80
2024/03/21 07:22:05;;;;;;;83.70;39.97;;;11.60;99.90;;;;;;7287292;19;20196;-81
2024/03/21 07:24:32;;;;;;;84.10;40.93;;;11.70;99.90;;;;;;7288342;19;20211;-80
2024/03/21 07:27:01;;;;;;;93.47;45.30;;;11.90;99.90;;;;;;7288658;19;20287;-80
2024/03/21 07:29:28;;;;;;;79.63;36.43;;;12.10;99.90;;;;;;7286585;19;20194;-80
2024/03/21 07:31:58;;;;;;;61.97;33.60;;;12.20;99.90;;;;;;7288279;19;20214;-79
2024/03/21 07:34:24;;;;;;;68.97;35.80;;;12.30;99.90;;;;;;7289493;19;20215;-80
2024/03/21 07:36:50;;;;;;;54.90;31.30;;;12.30;99.90;;;;;;7290512;19;20203;-79
2024/03/21 07:39:20;;;;;;;58.07;30.87;;;12.20;99.90;;;;;;7310058;19;20200;-80
2024/03/21 07:41:47;;;;;;;53.03;26.37;;;12.30;99.90;;;;;;7286959;19;20194;-80
2024/03/21 07:44:13;;;;;;;45.70;25.57;;;12.20;99.90;;;;;;7292111;19;20190;-80
2024/03/21 07:46:40;;;;;;;35.10;20.23;;;11.80;99.90;;;;;;7290645;19;20196;-80
2024/03/21 07:49:07;;;;;;;34.87;19.70;;;11.60;99.90;;;;;;7288205;19;20213;-80
2024/03/21 07:51:33;;;;;;;29.53;17.57;;;11.60;99.90;;;;;;7288696;19;20194;-80
2024/03/21 07:53:59;;;;;;;26.80;16.20;;;11.70;99.90;;;;;;7289532;19;20186;-80
2024/03/21 07:56:25;;;;;;;27.73;15.70;;;11.70;99.90;;;;;;7286933;19;20193;-80
2024/03/21 07:58:52;;;;;;;22.90;15.40;;;11.80;99.90;;;;;;7287951;19;20202;-79
2024/03/21 08:01:18;;;;;;;22.37;13.87;;;11.80;99.90;;;;;;7308056;19;20198;-80
2024/03/21 08:03:44;;;;;;;20.63;12.43;;;11.80;99.90;;;;;;7287830;19;20186;-80
2024/03/21 08:06:10;;;;;;;24.07;14.20;;;11.80;99.90;;;;;;7286042;19;20198;-80
2024/03/21 08:08:36;;;;;;;24.60;14.23;;;11.70;99.90;;;;;;7286366;19;20201;-80
2024/03/21 08:11:02;;;;;;;25.30;14.30;;;11.90;99.90;;;;;;7287320;19;20194;-80
2024/03/21 08:13:28;;;;;;;25.50;14.60;;;12.00;99.90;;;;;;7286766;19;20235;-81
2024/03/21 08:15:56;;;;;;;24.93;14.33;;;12.10;99.90;;;;;;7284226;19;20216;-80
2024/03/21 08:18:22;;;;;;;21.30;14.07;;;12.00;99.90;;;;;;7288925;19;20187;-79
2024/03/21 08:20:48;;;;;;;31.57;15.67;;;11.90;99.90;;;;;;7309584;19;20623;-79
2024/03/21 08:23:15;;;;;;;25.20;13.40;;;11.60;99.90;;;;;;7286653;19;20208;-79
2024/03/21 08:25:41;;;;;;;24.83;12.97;;;11.60;99.90;;;;;;7285549;19;20204;-79
2024/03/21 08:28:07;;;;;;;25.03;14.37;;;11.60;99.90;;;;;;7285606;19;20280;-79
2024/03/21 08:30:33;;;;;;;20.27;12.23;;;11.60;99.90;;;;;;7287352;19;20260;-80
2024/03/21 08:32:59;;;;;;;22.10;12.03;;;11.60;99.90;;;;;;7286942;19;20198;-79
2024/03/21 08:35:25;;;;;;;20.07;11.20;;;11.70;99.90;;;;;;7286381;19;20231;-80
2024/03/21 08:37:51;;;;;;;18.60;10.67;;;12.00;99.90;;;;;;7286436;19;20190;-79
2024/03/21 08:40:18;;;;;;;18.70;10.03;;;12.10;99.90;;;;;;7308682;19;20189;-80
2024/03/21 08:42:43;;;;;;;18.60;10.40;;;12.20;99.90;;;;;;7286483;19;20190;-80
2024/03/21 08:45:10;;;;;;;16.70;10.30;;;12.40;99.90;;;;;;7287472;19;20189;-80
2024/03/21 08:47:36;;;;;;;18.50;10.27;;;12.50;99.90;;;;;;7287515;19;20186;-80
2024/03/21 08:50:03;;;;;;;14.43;9.43;;;12.60;99.90;;;;;;7287886;19;20521;-80
2024/03/21 08:52:29;;;;;;;19.87;10.00;;;12.70;99.90;;;;;;7285991;19;20191;-79
2024/03/21 08:54:54;;;;;;;17.70;10.13;;;12.80;99.90;;;;;;7286232;19;20195;-79
2024/03/21 08:57:20;;;;;;;18.77;9.77;;;12.80;99.90;;;;;;7287267;19;20194;-79
2024/03/21 08:59:47;;;;;;;17.73;9.00;;;12.60;99.90;;;;;;7308934;19;20541;-80
2024/03/21 09:02:14;;;;;;;16.10;8.57;;;12.70;99.90;;;;;;7284762;19;20225;-80
2024/03/21 09:04:40;;;;;;;17.47;9.07;;;12.70;99.90;;;;;;7286275;19;20202;-80
2024/03/21 09:07:06;;;;;;;19.07;8.33;;;12.70;99.90;;;;;;7286553;19;20198;-80
2024/03/21 09:09:35;;;;;;;15.67;7.47;;;12.60;99.90;;;;;;7285977;19;20206;-80
2024/03/21 09:12:02;;;;;;;12.77;6.53;;;12.50;99.90;;;;;;7284286;19;20655;-79
2024/03/21 09:14:28;;;;;;;14.60;6.40;;;12.20;99.90;;;;;;7285578;19;20221;-80
2024/03/21 09:16:54;;;;;;;16.20;7.40;;;12.00;99.90;;;;;;7284971;19;20593;-80
2024/03/21 09:19:21;;;;;;;13.73;6.77;;;11.90;99.90;;;;;;7286298;19;20189;-79
2024/03/21 09:21:47;;;;;;;18.23;8.90;;;11.90;99.90;;;;;;7306860;19;20254;-80
2024/03/21 09:24:13;;;;;;;15.07;7.70;;;12.10;99.90;;;;;;7286218;19;20205;-80
2024/03/21 09:26:41;;;;;;;17.20;7.83;;;12.40;99.90;;;;;;7283262;19;20286;-80
2024/03/21 09:29:07;;;;;;;16.30;8.27;;;12.60;99.90;;;;;;7280782;19;20197;-80
2024/03/21 09:31:34;;;;;;;17.10;8.80;;;12.90;99.90;;;;;;7282886;19;20188;-80
2024/03/21 09:34:00;;;;;;;16.10;7.90;;;13.00;99.90;;;;;;7284004;19;20632;-81
2024/03/21 09:36:26;;;;;;;19.87;9.23;;;13.00;99.90;;;;;;7282141;19;20187;-81
2024/03/21 09:38:53;;;;;;;18.13;9.37;;;12.70;99.90;;;;;;7282231;19;20197;-80
2024/03/21 09:41:19;;;;;;;18.80;8.80;;;12.70;99.90;;;;;;7297756;19;20191;-79
2024/03/21 09:43:46;;;;;;;21.00;11.00;;;13.00;99.90;;;;;;7301748;19;20182;-80
2024/03/21 09:46:16;;;;;;;25.47;11.23;;;13.10;99.90;;;;;;7283594;19;20270;-80
2024/03/21 09:48:42;;;;;;;19.00;9.53;;;13.20;99.90;;;;;;7282123;19;20185;-80
2024/03/21 09:51:25;;;;;;;21.37;11.50;;;13.40;99.90;;;;;;7283805;19;20203;-80
2024/03/21 09:53:51;;;;;;;23.57;11.07;;;13.40;99.90;;;;;;7262872;19;20314;-80
2024/03/21 09:56:18;;;;;;;19.20;9.10;;;13.50;99.90;;;;;;7306118;19;20196;-80
2024/03/21 09:58:47;;;;;;;21.80;9.90;;;13.50;99.90;;;;;;7284157;19;20194;-80
2024/03/21 10:01:19;;;;;;;21.80;10.93;;;13.60;99.90;;;;;;7284387;19;20255;-80
2024/03/21 10:03:51;;;;;;;26.83;14.40;;;13.60;99.90;;;;;;7285928;19;20564;-80
2024/03/21 10:06:16;;;;;;;32.47;16.80;;;13.60;99.90;;;;;;7285271;19;21084;-80
2024/03/21 10:08:42;;;;;;;29.77;15.90;;;13.80;99.90;;;;;;7283795;19;20214;-80
2024/03/21 10:11:08;;;;;;;27.63;14.93;;;14.00;99.90;;;;;;7284832;19;20184;-80
2024/03/21 10:13:34;;;;;;;27.23;15.07;;;14.30;99.90;;;;;;7284104;19;20196;-80
2024/03/21 10:16:00;;;;;;;27.30;14.57;;;14.40;99.90;;;;;;7282440;19;20193;-80
2024/03/21 10:18:35;;;;;;;28.03;15.37;;;14.30;99.90;;;;;;7282318;19;20180;-80
2024/03/21 10:21:03;;;;;;;30.20;15.80;;;14.40;99.90;;;;;;7285160;19;20253;-80
2024/03/21 10:23:28;;;;;;;35.33;19.07;;;14.60;99.90;;;;;;7284344;19;20725;-80
2024/03/21 10:25:54;;;;;;;38.60;21.23;;;14.80;99.90;;;;;;7282797;19;20197;-80
2024/03/21 10:28:20;;;;;;;37.77;20.90;;;14.80;99.90;;;;;;7292510;19;20192;-80
2024/03/21 10:30:46;;;;;;;38.50;21.27;;;14.50;99.90;;;;;;7304742;19;20222;-80
2024/03/21 10:33:19;;;;;;;41.63;21.90;;;14.70;99.90;;;;;;7283055;19;20193;-81
2024/03/21 10:35:45;;;;;;;37.30;20.97;;;14.90;99.90;;;;;;7283298;19;20562;-80
2024/03/21 10:38:15;;;;;;;36.27;20.83;;;15.00;99.90;;;;;;7281788;19;20202;-81
2024/03/21 10:40:55;;;;;;;47.70;24.50;;;15.10;99.90;;;;;;7283812;19;20187;-80
2024/03/21 10:43:22;;;;;;;48.30;26.93;;;15.30;99.90;;;;;;7260168;19;20691;-79
2024/03/21 10:45:48;;;;;;;61.23;31.77;;;15.40;99.90;;;;;;7302297;19;20185;-80
2024/03/21 10:48:32;;;;;;;64.57;33.47;;;15.20;99.90;;;;;;7282729;19;20677;-80
2024/03/21 10:51:11;;;;;;;65.30;33.63;;;15.20;99.90;;;;;;7180920;19;2004435;-80
2024/03/21 10:53:37;;;;;;;66.23;33.57;;;14.80;99.90;;;;;;7281458;19;20197;-81
2024/03/21 10:56:08;;;;;;;61.10;33.30;;;14.90;99.90;;;;;;7281715;19;20185;-80
2024/03/21 10:58:40;;;;;;;60.57;32.73;;;15.00;99.90;;;;;;7283853;19;20193;-80
2024/03/21 11:01:07;;;;;;;63.77;34.20;;;15.20;99.90;;;;;;7281943;19;20219;-80
2024/03/21 11:03:44;;;;;;;69.27;33.40;;;15.50;99.90;;;;;;7281974;19;20210;-81
2024/03/21 11:06:13;;;;;;;61.07;32.10;;;15.50;99.90;;;;;;7281579;19;20221;-80
2024/03/21 11:08:38;;;;;;;59.23;31.80;;;15.50;99.90;;;;;;7280287;19;20273;-81
2024/03/21 11:11:04;;;;;;;56.87;29.33;;;15.40;99.90;;;;;;7279299;19;20249;-81
2024/03/21 11:13:30;;;;;;;57.73;30.90;;;15.40;99.90;;;;;;7276870;19;20200;-80
2024/03/21 11:15:56;;;;;;;55.20;29.70;;;15.60;99.90;;;;;;7280090;19;20616;-80
2024/03/21 11:18:22;;;;;;;55.33;29.43;;;15.90;99.90;;;;;;7282490;19;20617;-80
2024/03/21 11:20:48;;;;;;;56.97;30.20;;;15.90;99.90;;;;;;7302260;19;20226;-80
2024/03/21 11:23:15;;;;;;;51.90;28.60;;;16.00;99.90;;;;;;7281042;19;20196;-81
2024/03/21 11:25:41;;;;;;;53.37;28.80;;;16.20;99.90;;;;;;7281169;19;21469;-80
2024/03/21 11:28:15;;;;;;;53.57;28.33;;;15.80;99.90;;;;;;7281451;19;20258;-80
2024/03/21 11:30:43;;;;;;;51.27;27.00;;;16.10;99.90;;;;;;7281023;19;20215;-81
2024/03/21 11:33:10;;;;;;;52.27;28.23;;;16.30;99.90;;;;;;7280471;19;20204;-80
2024/03/21 11:35:42;;;;;;;53.00;28.33;;;16.50;99.90;;;;;;7281183;19;20679;-80
2024/03/21 11:38:10;;;;;;;50.27;27.93;;;16.70;99.90;;;;;;7282520;19;20191;-80
2024/03/21 11:40:36;;;;;;;50.50;27.00;;;16.70;99.90;;;;;;7280551;19;20673;-80
2024/03/21 11:43:03;;;;;;;45.53;25.63;;;16.60;99.90;;;;;;7280341;19;20199;-80
2024/03/21 11:45:29;;;;;;;41.90;23.17;;;16.60;99.90;;;;;;7281571;19;20190;-80
2024/03/21 11:48:08;;;;;;;45.17;23.67;;;16.50;99.90;;;;;;7280942;19;20202;-80
2024/03/21 11:50:35;;;;;;;46.50;25.10;;;16.30;99.90;;;;;;7278064;19;20204;-80
2024/03/21 11:53:01;;;;;;;42.23;23.30;;;15.90;99.90;;;;;;7281616;19;20203;-79
2024/03/21 11:55:27;;;;;;;44.87;22.77;;;15.70;99.90;;;;;;7281861;19;20214;-80
2024/03/21 11:57:55;;;;;;;38.33;21.83;;;15.20;99.90;;;;;;7281098;19;20199;-80
2024/03/21 12:00:21;;;;;;;42.70;23.53;;;15.10;99.90;;;;;;7287029;19;20290;-79
2024/03/21 12:02:48;;;;;;;38.17;21.33;;;14.90;99.90;;;;;;7310180;19;20190;-80
2024/03/21 12:05:14;;;;;;;38.63;21.00;;;15.20;99.90;;;;;;7289670;19;20198;-81
2024/03/21 12:07:43;;;;;;;41.33;22.77;;;15.30;99.90;;;;;;7287654;19;20189;-79
2024/03/21 12:10:12;;;;;;;43.43;25.10;;;15.30;99.90;;;;;;7286368;19;20189;-80
2024/03/21 12:12:38;;;;;;;32.07;17.93;;;15.50;99.90;;;;;;7288337;19;20589;-80
2024/03/21 12:15:05;;;;;;;27.70;14.80;;;15.80;99.90;;;;;;7286711;19;20198;-79
2024/03/21 12:17:32;;;;;;;24.97;13.83;;;15.80;99.90;;;;;;7287745;19;20531;-79
2024/03/21 12:19:58;;;;;;;19.77;10.97;;;15.80;99.90;;;;;;7283978;19;20191;-78
2024/03/21 12:22:26;;;;;;;17.47;10.10;;;15.70;99.90;;;;;;7286047;19;20251;-80
2024/03/21 12:24:56;;;;;;;18.57;10.70;;;15.80;99.90;;;;;;7287268;19;20604;-82
2024/03/21 12:27:23;;;;;;;15.67;9.40;;;15.90;99.90;;;;;;7283509;19;20194;-78
2024/03/21 12:29:49;;;;;;;13.17;7.77;;;16.10;99.90;;;;;;7304096;19;20199;-78
2024/03/21 12:32:15;;;;;;;13.47;7.10;;;16.10;99.90;;;;;;7295081;19;20188;-79
2024/03/21 12:34:42;;;;;;;13.60;7.37;;;16.50;99.90;;;;;;7285929;19;20291;-79